Time;durP1;ratioP1;P1;durP2;ratioP2;P2;SDS_P1;SDS_P2;PMS_P1;PMS_P2;Temp;Humidity;BMP_temperature;BMP_pressure;BME280_temperature;BME280_humidity;BME280_pressure;Samples;Min_cycle;Max_cycle;Signal;HPM_P1;HPM_P2
2022/05/28 00:06:37;;;;;;;0.20;0.00;;;20.30;99.90;;;;;;26419598;22;20194;-79
2022/05/28 00:16:43;;;;;;;0.20;0.10;;;20.50;99.90;;;;;;26423770;22;20171;-79
2022/05/28 00:26:47;;;;;;;0.20;0.10;;;20.40;99.90;;;;;;26420907;22;20238;-77
2022/05/28 00:36:54;;;;;;;0.20;0.00;;;20.70;99.90;;;;;;26424277;22;20162;-78
2022/05/28 00:46:59;;;;;;;0.20;0.00;;;20.60;99.90;;;;;;26421200;22;20178;-80
2022/05/28 00:57:07;;;;;;;0.20;0.10;;;21.00;99.90;;;;;;26422826;22;20193;-78
2022/05/28 01:07:17;;;;;;;0.20;0.00;;;21.10;99.90;;;;;;26422173;22;20201;-79
2022/05/28 01:17:29;;;;;;;0.20;0.00;;;21.30;99.90;;;;;;26416871;22;20150;-78
2022/05/28 01:27:41;;;;;;;0.20;0.00;;;21.00;99.90;;;;;;26420534;22;20181;-78
2022/05/28 01:37:46;;;;;;;0.20;0.10;;;20.80;99.90;;;;;;26416452;22;20166;-76
2022/05/28 01:47:52;;;;;;;0.20;0.10;;;20.70;99.90;;;;;;26419063;22;20182;-78
2022/05/28 01:57:56;;;;;;;0.20;0.10;;;20.40;99.90;;;;;;26392829;22;20182;-77
2022/05/28 02:08:01;;;;;;;0.20;0.00;;;20.50;99.90;;;;;;26416084;22;20193;-76
2022/05/28 02:18:18;;;;;;;0.20;0.00;;;20.20;99.90;;;;;;26418846;22;20150;-76
2022/05/28 02:28:25;;;;;;;0.20;0.00;;;20.10;99.90;;;;;;26414712;22;20193;-76
2022/05/28 02:38:29;;;;;;;0.20;0.00;;;19.70;99.90;;;;;;26417922;22;20161;-75
2022/05/28 02:48:36;;;;;;;0.20;0.10;;;19.80;99.90;;;;;;26418571;22;20186;-77
2022/05/28 02:58:40;;;;;;;0.20;0.10;;;20.10;99.90;;;;;;26418351;22;20193;-77
2022/05/28 03:08:46;;;;;;;0.20;0.10;;;20.30;99.90;;;;;;26420346;22;20193;-77
2022/05/28 03:18:49;;;;;;;0.20;0.00;;;20.40;99.90;;;;;;26426406;22;20162;-78
2022/05/28 03:28:57;;;;;;;0.20;0.10;;;19.90;99.90;;;;;;26424062;22;20193;-78
2022/05/28 03:39:01;;;;;;;0.20;0.10;;;20.00;99.90;;;;;;26424321;22;20162;-78
2022/05/28 03:49:09;;;;;;;0.20;0.10;;;19.70;99.90;;;;;;26423548;22;20190;-77
2022/05/28 03:59:14;;;;;;;0.20;0.10;;;19.50;99.90;;;;;;26422896;22;20186;-78
2022/05/28 04:09:19;;;;;;;0.20;0.00;;;19.20;99.90;;;;;;26423249;22;20206;-78
2022/05/28 04:19:23;;;;;;;0.20;0.10;;;19.50;99.90;;;;;;26418043;22;20186;-76
2022/05/28 04:29:28;;;;;;;0.20;0.00;;;19.50;99.90;;;;;;26420083;22;21016;-75
2022/05/28 04:39:32;;;;;;;0.20;0.10;;;21.00;99.90;;;;;;26421590;22;20150;-77
2022/05/28 04:49:37;;;;;;;0.20;0.00;;;20.80;99.90;;;;;;26422789;22;20197;-77
2022/05/28 04:59:42;;;;;;;0.20;0.10;;;20.80;99.90;;;;;;26421473;22;20186;-78
2022/05/28 05:09:47;;;;;;;0.20;0.10;;;20.90;99.90;;;;;;26421972;22;20193;-78
2022/05/28 05:19:52;;;;;;;0.20;0.00;;;21.00;99.90;;;;;;26418060;22;20178;-77
2022/05/28 05:29:59;;;;;;;0.20;0.00;;;21.00;99.90;;;;;;26421218;22;20174;-77
2022/05/28 05:40:03;;;;;;;0.20;0.10;;;20.90;99.90;;;;;;26416778;22;20236;-77
2022/05/28 05:50:10;;;;;;;0.20;0.10;;;20.90;99.90;;;;;;26419425;22;20186;-75
2022/05/28 06:00:16;;;;;;;0.20;0.00;;;21.10;99.90;;;;;;26412534;22;20210;-75
2022/05/28 06:10:23;;;;;;;0.20;0.00;;;21.30;99.90;;;;;;26414445;22;20238;-73
2022/05/28 06:20:26;;;;;;;0.20;0.00;;;22.10;99.90;;;;;;26415302;22;20158;-79
2022/05/28 06:30:32;;;;;;;0.20;0.10;;;22.50;99.90;;;;;;26413962;22;20261;-76
2022/05/28 06:40:36;;;;;;;0.20;0.10;;;22.90;99.90;;;;;;26415846;22;20150;-74
2022/05/28 07:01:07;;;;;;;0.20;0.00;;;22.50;99.90;;;;;;26411671;22;20189;-77
2022/05/28 07:11:13;;;;;;;0.20;0.00;;;22.10;99.90;;;;;;26411840;22;20204;-79
2022/05/28 07:21:19;;;;;;;0.20;0.00;;;22.10;99.90;;;;;;26413674;22;20185;-79
2022/05/28 07:31:25;;;;;;;0.20;0.10;;;21.80;99.90;;;;;;26411817;22;20174;-79
2022/05/28 07:41:29;;;;;;;0.20;0.00;;;22.00;99.90;;;;;;26412437;22;20154;-76
2022/05/28 07:51:35;;;;;;;0.20;0.00;;;22.50;99.90;;;;;;26411255;22;20197;-75
2022/05/28 08:01:40;;;;;;;0.20;0.10;;;22.80;99.90;;;;;;26419593;22;20163;-78
2022/05/28 08:11:45;;;;;;;0.20;0.00;;;22.60;99.90;;;;;;26418875;22;20257;-78
2022/05/28 08:32:22;;;;;;;0.20;0.00;;;22.70;99.90;;;;;;26333113;22;20205;-77
2022/05/28 08:42:29;;;;;;;0.20;0.00;;;23.20;99.90;;;;;;26386642;22;20173;-75
2022/05/28 08:52:39;;;;;;;0.20;0.00;;;23.00;99.90;;;;;;26389260;22;20193;-75
2022/05/28 09:02:47;;;;;;;0.20;0.10;;;23.10;99.90;;;;;;26383520;22;20162;-73
2022/05/28 09:12:56;;;;;;;0.20;0.00;;;23.20;99.90;;;;;;26390840;22;20190;-75
2022/05/28 09:23:00;;;;;;;0.20;0.00;;;23.80;99.90;;;;;;26385708;22;20182;-75
2022/05/28 09:33:33;;;;;;;0.20;0.00;;;24.40;99.90;;;;;;26386094;22;20202;-78
2022/05/28 09:43:50;;;;;;;0.20;0.10;;;24.80;99.90;;;;;;26388196;22;20178;-76
2022/05/28 09:54:20;;;;;;;0.20;0.10;;;24.60;99.90;;;;;;26383124;22;20181;-76
2022/05/28 10:04:30;;;;;;;0.20;0.10;;;24.80;99.90;;;;;;26384943;22;20182;-73
2022/05/28 10:14:36;;;;;;;0.20;0.10;;;25.50;99.90;;;;;;26401744;22;20311;-81
2022/05/28 10:24:46;;;;;;;0.20;0.08;;;25.50;99.90;;;;;;26386547;22;20253;-75
2022/05/28 10:35:00;;;;;;;0.20;0.00;;;26.10;99.90;;;;;;26414975;22;20172;-78
2022/05/28 10:45:05;;;;;;;0.20;0.00;;;26.80;99.90;;;;;;26382448;22;20186;-77
2022/05/28 10:55:13;;;;;;;0.20;0.00;;;26.90;99.90;;;;;;26407800;22;20182;-74
2022/05/28 11:05:32;;;;;;;0.20;0.00;;;26.60;99.90;;;;;;26382466;22;20178;-81
2022/05/28 11:16:09;;;;;;;0.20;0.00;;;27.40;99.90;;;;;;26253063;22;20321;-74
2022/05/28 11:26:24;;;;;;;0.20;0.00;;;25.90;99.90;;;;;;26280187;22;20240;-73
2022/05/28 11:36:37;;;;;;;0.20;0.00;;;26.30;99.90;;;;;;26258945;22;20181;-72
2022/05/28 11:46:47;;;;;;;0.20;0.00;;;27.20;99.90;;;;;;26260006;22;20204;-74
2022/05/28 11:56:56;;;;;;;0.20;0.10;;;27.90;99.90;;;;;;26258825;22;20328;-70
2022/05/28 12:07:04;;;;;;;0.20;0.00;;;28.50;99.90;;;;;;26286772;22;20190;-70
2022/05/28 12:17:22;;;;;;;0.20;0.00;;;29.40;99.90;;;;;;26286148;22;20182;-73
2022/05/28 12:27:40;;;;;;;0.20;0.10;;;29.60;99.90;;;;;;26283140;22;20183;-72
2022/05/28 12:37:53;;;;;;;0.20;0.00;;;31.00;99.90;;;;;;26284312;22;20147;-71
2022/05/28 12:48:06;;;;;;;0.20;0.00;;;31.50;99.90;;;;;;26258958;22;20186;-73
2022/05/28 12:58:15;;;;;;;0.20;0.00;;;31.50;99.90;;;;;;26231916;22;20197;-75
2022/05/28 13:08:22;;;;;;;0.20;0.00;;;31.10;99.90;;;;;;26295396;22;20212;-73
2022/05/28 13:19:06;;;;;;;0.20;0.00;;;31.90;99.90;;;;;;26413591;22;20158;-74
2022/05/28 13:29:34;;;;;;;0.20;0.00;;;32.20;99.90;;;;;;26417439;22;20196;-74
2022/05/28 13:39:44;;;;;;;0.20;0.00;;;32.40;99.90;;;;;;26416712;22;20248;-74
2022/05/28 13:49:53;;;;;;;0.20;0.00;;;31.30;99.90;;;;;;26389056;22;20221;-75
2022/05/28 13:59:58;;;;;;;0.20;0.10;;;31.60;99.90;;;;;;26415779;22;20182;-71
2022/05/28 14:10:05;;;;;;;0.20;0.00;;;31.60;99.90;;;;;;26414830;22;20205;-76
2022/05/28 14:20:19;;;;;;;0.20;0.00;;;30.50;99.90;;;;;;26387207;22;20165;-74
2022/05/28 14:30:34;;;;;;;0.20;0.00;;;32.30;99.90;;;;;;26388949;22;20208;-76
2022/05/28 14:40:44;;;;;;;0.20;0.00;;;32.60;99.90;;;;;;26387239;22;20188;-75
2022/05/28 14:50:52;;;;;;;0.20;0.00;;;32.10;99.90;;;;;;26413551;22;20192;-72
2022/05/28 15:01:08;;;;;;;0.20;0.00;;;31.20;99.90;;;;;;26363322;22;20197;-75
2022/05/28 15:11:22;;;;;;;0.20;0.00;;;30.50;99.90;;;;;;26395091;22;20205;-74
2022/05/28 15:21:27;;;;;;;0.20;0.00;;;30.80;99.90;;;;;;26419833;22;20150;-74
2022/05/28 15:31:31;;;;;;;0.20;0.10;;;30.20;99.90;;;;;;26394331;22;20174;-76
2022/05/28 15:41:39;;;;;;;0.20;0.00;;;29.60;99.90;;;;;;26416966;22;20174;-73
2022/05/28 15:51:43;;;;;;;0.20;0.10;;;30.40;99.90;;;;;;26414204;22;20257;-76
2022/05/28 16:01:48;;;;;;;0.20;0.05;;;29.90;99.90;;;;;;26414266;22;20162;-74
2022/05/28 16:11:52;;;;;;;0.20;0.00;;;29.40;99.90;;;;;;26412708;22;20209;-76
2022/05/28 16:21:58;;;;;;;0.20;0.00;;;28.80;99.90;;;;;;26390564;22;20178;-75
2022/05/28 16:32:02;;;;;;;0.20;0.00;;;26.80;99.90;;;;;;26417024;22;20182;-75
2022/05/28 16:42:08;;;;;;;0.20;0.00;;;26.50;99.90;;;;;;26386753;22;20293;-78
2022/05/28 16:52:12;;;;;;;0.20;0.00;;;26.40;99.90;;;;;;26383873;22;20194;-74
2022/05/28 17:02:17;;;;;;;0.20;0.00;;;27.40;99.90;;;;;;26382866;22;20216;-74
2022/05/28 17:12:24;;;;;;;0.20;0.00;;;29.00;99.90;;;;;;26410248;22;20208;-78
2022/05/28 17:22:30;;;;;;;0.20;0.00;;;28.80;99.90;;;;;;26414837;22;20542;-72
2022/05/28 17:32:34;;;;;;;0.20;0.10;;;26.50;99.90;;;;;;26380922;22;20178;-70
2022/05/28 17:42:39;;;;;;;0.20;0.00;;;25.20;99.90;;;;;;26383471;22;20174;-73
2022/05/28 17:52:43;;;;;;;0.20;0.10;;;25.00;99.90;;;;;;26412851;22;20205;-75
2022/05/28 18:02:49;;;;;;;0.20;0.00;;;25.80;99.90;;;;;;26411881;22;20177;-72
2022/05/28 18:12:53;;;;;;;0.20;0.00;;;26.70;99.90;;;;;;26412429;22;20209;-70
2022/05/28 18:23:00;;;;;;;0.20;0.00;;;26.90;99.90;;;;;;26356002;22;20879;-73
2022/05/28 18:33:04;;;;;;;0.20;0.10;;;27.00;99.90;;;;;;26411395;22;20203;-72
2022/05/28 18:43:10;;;;;;;0.20;0.00;;;26.30;99.90;;;;;;26381772;22;20162;-73
2022/05/28 19:03:41;;;;;;;0.20;0.00;;;24.60;99.90;;;;;;26410339;22;20176;-74
2022/05/28 19:13:49;;;;;;;0.20;0.10;;;24.10;99.90;;;;;;26411592;22;20198;-79
2022/05/28 19:23:54;;;;;;;0.20;0.10;;;23.90;99.90;;;;;;26411274;22;20174;-74
2022/05/28 19:33:58;;;;;;;0.20;0.00;;;23.80;99.90;;;;;;26413823;22;20186;-74
2022/05/28 19:44:06;;;;;;;0.20;0.00;;;23.50;99.90;;;;;;26412457;22;20173;-74
2022/05/28 19:54:10;;;;;;;0.20;0.00;;;23.40;99.90;;;;;;26390083;22;20202;-75
2022/05/28 20:04:18;;;;;;;0.20;0.00;;;23.30;99.90;;;;;;26429113;22;20286;-72
2022/05/28 20:14:22;;;;;;;0.20;0.00;;;23.20;99.90;;;;;;26402221;22;20193;-73
2022/05/28 20:24:28;;;;;;;0.20;0.00;;;23.20;99.90;;;;;;26402484;22;20173;-70
2022/05/28 20:34:37;;;;;;;0.20;0.00;;;23.00;99.90;;;;;;26400931;22;20350;-73
2022/05/28 20:44:42;;;;;;;0.20;0.00;;;22.70;99.90;;;;;;26401215;22;20166;-73
2022/05/28 20:54:46;;;;;;;0.20;0.10;;;22.60;99.90;;;;;;26427585;22;20219;-73
2022/05/28 21:04:55;;;;;;;0.20;0.00;;;22.50;99.90;;;;;;26429002;22;20162;-75
2022/05/28 21:14:59;;;;;;;0.20;0.10;;;22.20;99.90;;;;;;26401433;22;20254;-74
2022/05/28 21:25:05;;;;;;;0.20;0.00;;;22.40;99.90;;;;;;26403431;22;20181;-77
2022/05/28 21:35:19;;;;;;;0.20;0.00;;;22.20;99.90;;;;;;26402254;22;20154;-77
2022/05/28 21:45:26;;;;;;;0.20;0.00;;;22.30;99.90;;;;;;26428706;22;20189;-77
2022/05/28 21:55:32;;;;;;;0.20;0.00;;;21.80;99.90;;;;;;26401541;22;20201;-77
2022/05/28 22:05:37;;;;;;;0.20;0.00;;;22.10;99.90;;;;;;26425177;22;20194;-76
2022/05/28 22:15:42;;;;;;;0.20;0.00;;;21.80;99.90;;;;;;26425408;22;20170;-77
2022/05/28 22:25:48;;;;;;;0.20;0.00;;;21.60;99.90;;;;;;26426554;22;20186;-78
2022/05/28 22:35:52;;;;;;;0.20;0.10;;;21.40;99.90;;;;;;26423222;22;20158;-77
2022/05/28 22:45:59;;;;;;;0.20;0.00;;;21.20;99.90;;;;;;26425723;22;20182;-76
2022/05/28 22:56:08;;;;;;;0.20;0.00;;;20.80;99.90;;;;;;26399653;22;20193;-77
2022/05/28 23:06:18;;;;;;;0.20;0.00;;;20.90;99.90;;;;;;26395129;22;20253;-75
2022/05/28 23:16:21;;;;;;;0.20;0.10;;;20.70;99.90;;;;;;26427744;22;20158;-77
2022/05/28 23:26:27;;;;;;;0.20;0.00;;;20.60;99.90;;;;;;26432172;22;20186;-76
2022/05/28 23:36:34;;;;;;;0.20;0.10;;;20.20;99.90;;;;;;26436590;22;20176;-76
2022/05/28 23:46:43;;;;;;;0.20;0.00;;;20.10;99.90;;;;;;26437252;22;20189;-76
2022/05/28 23:56:47;;;;;;;0.20;0.10;;;20.00;99.90;;;;;;26406007;22;20190;-78
